createdAt,value
2023-05-24T00:01:26.049Z,2.87
2023-05-24T00:03:54.182Z,2.73
2023-05-24T00:06:23.331Z,3.13
2023-05-24T00:08:51.145Z,2.93
2023-05-24T00:11:19.110Z,2.90
2023-05-24T00:13:47.302Z,2.73
2023-05-24T00:16:16.026Z,2.83
2023-05-24T00:18:46.885Z,3.13
2023-05-24T00:21:15.684Z,2.40
2023-05-24T00:23:44.251Z,2.70
2023-05-24T00:26:11.999Z,2.67
2023-05-24T00:28:39.729Z,3.03
2023-05-24T00:31:08.377Z,3.47
2023-05-24T00:33:36.134Z,2.90
2023-05-24T00:36:06.056Z,3.30
2023-05-24T00:38:34.766Z,2.97
2023-05-24T00:41:02.652Z,2.60
2023-05-24T00:43:30.349Z,2.80
2023-05-24T00:46:16.676Z,3.13
2023-05-24T00:48:45.273Z,3.37
2023-05-24T00:51:15.709Z,3.13
2023-05-24T00:53:47.680Z,3.40
2023-05-24T00:56:17.334Z,2.77
2023-05-24T00:58:45.880Z,2.33
2023-05-24T01:01:14.778Z,2.97
2023-05-24T01:03:43.414Z,3.33
2023-05-24T01:06:17.735Z,3.27
2023-05-24T01:09:04.341Z,2.80
2023-05-24T01:11:42.139Z,3.13
2023-05-24T01:14:20.132Z,2.80
2023-05-24T01:16:53.029Z,3.23
2023-05-24T01:19:50.016Z,3.30
2023-05-24T01:22:44.486Z,3.00
2023-05-24T01:25:18.214Z,3.87
2023-05-24T01:27:49.398Z,3.47
2023-05-24T01:30:18.137Z,3.60
2023-05-24T01:32:46.196Z,3.27
2023-05-24T01:35:14.155Z,2.93
2023-05-24T01:37:42.510Z,4.10
2023-05-24T01:40:12.144Z,3.53
2023-05-24T01:42:46.991Z,2.70
2023-05-24T01:45:23.460Z,2.97
2023-05-24T01:48:03.413Z,3.10
2023-05-24T01:50:34.421Z,3.47
2023-05-24T01:53:06.565Z,3.43
2023-05-24T01:55:36.365Z,3.83
2023-05-24T01:58:07.713Z,3.20
2023-05-24T02:00:37.886Z,2.83
2023-05-24T02:03:06.566Z,4.37
2023-05-24T02:05:34.478Z,2.97
2023-05-24T02:08:02.182Z,2.97
2023-05-24T02:10:31.032Z,3.27
2023-05-24T02:13:00.012Z,4.07
2023-05-24T02:15:30.593Z,3.37
2023-05-24T02:18:01.621Z,3.23
2023-05-24T02:20:31.111Z,3.00
2023-05-24T02:23:00.174Z,3.17
2023-05-24T02:25:28.059Z,3.30
2023-05-24T02:27:56.476Z,3.17
2023-05-24T02:30:24.386Z,3.60
2023-05-24T02:32:52.258Z,3.40
2023-05-24T02:35:21.558Z,4.13
2023-05-24T02:37:49.878Z,3.97
2023-05-24T02:40:17.684Z,4.10
2023-05-24T02:42:45.630Z,3.83
2023-05-24T02:45:13.529Z,3.93
2023-05-24T02:47:41.668Z,3.50
2023-05-24T02:50:10.836Z,3.17
2023-05-24T02:52:40.330Z,3.90
2023-05-24T02:55:09.256Z,4.00
2023-05-24T02:57:38.078Z,3.90
2023-05-24T03:00:09.267Z,3.73
2023-05-24T03:02:38.815Z,4.27
2023-05-24T03:05:08.677Z,3.70
2023-05-24T03:07:37.021Z,3.80
2023-05-24T03:10:07.817Z,3.30
2023-05-24T03:12:35.605Z,3.83
2023-05-24T03:15:05.384Z,4.17
2023-05-24T03:17:33.156Z,3.70
2023-05-24T03:20:01.518Z,3.93
2023-05-24T03:22:29.622Z,4.20
2023-05-24T03:24:58.593Z,4.03
2023-05-24T03:27:27.991Z,3.63
2023-05-24T03:29:56.224Z,4.13
2023-05-24T03:32:24.080Z,3.97
2023-05-24T03:34:51.849Z,4.63
2023-05-24T03:37:20.293Z,3.60
2023-05-24T03:39:48.166Z,3.60
2023-05-24T03:42:15.944Z,3.93
2023-05-24T03:44:45.628Z,3.20
2023-05-24T03:47:13.313Z,4.07
2023-05-24T03:49:41.218Z,3.93
2023-05-24T03:52:09.146Z,3.80
2023-05-24T03:54:37.091Z,3.77
2023-05-24T03:57:05.163Z,3.53
2023-05-24T03:59:33.435Z,4.30
2023-05-24T04:02:03.119Z,3.63
2023-05-24T04:04:31.067Z,3.77
2023-05-24T04:06:58.953Z,3.87
2023-05-24T04:09:26.863Z,4.13
2023-05-24T04:11:55.744Z,4.30
2023-05-24T04:14:23.958Z,3.80
2023-05-24T04:16:51.965Z,6.10
2023-05-24T04:19:21.611Z,4.37
2023-05-24T04:21:49.641Z,4.03
2023-05-24T04:24:17.625Z,3.83
2023-05-24T04:26:48.017Z,4.17
2023-05-24T04:29:16.098Z,3.90
2023-05-24T04:31:44.732Z,4.37
2023-05-24T04:34:13.302Z,4.10
2023-05-24T04:36:43.106Z,4.07
2023-05-24T04:39:11.506Z,4.43
2023-05-24T04:41:39.609Z,4.17
2023-05-24T04:44:07.680Z,3.87
2023-05-24T04:46:36.954Z,4.40
2023-05-24T04:49:05.823Z,4.67
2023-05-24T04:51:38.672Z,4.93
2023-05-24T04:54:10.173Z,4.07
2023-05-24T04:56:39.439Z,5.63
2023-05-24T04:59:07.506Z,4.40
2023-05-24T05:01:35.740Z,4.77
2023-05-24T05:04:05.611Z,4.83
2023-05-24T05:06:38.168Z,4.63
2023-05-24T05:09:09.273Z,4.43
2023-05-24T05:11:38.510Z,4.60
2023-05-24T05:14:06.419Z,4.70
2023-05-24T05:16:34.532Z,5.90
2023-05-24T05:19:04.744Z,5.80
2023-05-24T05:21:33.932Z,5.23
2023-05-24T05:24:02.595Z,3.90
2023-05-24T05:26:32.408Z,5.20
2023-05-24T05:29:01.924Z,4.53
2023-05-24T05:31:31.206Z,6.07
2023-05-24T05:33:59.211Z,5.80
2023-05-24T05:36:27.075Z,5.40
2023-05-24T05:38:55.985Z,5.70
2023-05-24T05:41:23.796Z,5.90
2023-05-24T05:43:52.277Z,5.90
2023-05-24T05:46:23.105Z,5.10
2023-05-24T05:48:51.289Z,5.70
2023-05-24T05:51:19.162Z,5.10
2023-05-24T05:53:46.986Z,5.60
2023-05-24T05:56:15.150Z,5.03
2023-05-24T05:58:42.820Z,5.43
2023-05-24T06:01:10.550Z,4.93
2023-05-24T06:03:39.958Z,5.40
2023-05-24T06:06:09.046Z,5.13
2023-05-24T06:08:37.043Z,5.57
2023-05-24T06:11:05.085Z,6.40
2023-05-24T06:13:34.541Z,4.47
2023-05-24T06:16:03.664Z,5.37
2023-05-24T06:18:32.736Z,5.13
2023-05-24T06:21:02.004Z,5.80
2023-05-24T06:23:30.158Z,5.40
2023-05-24T06:25:58.001Z,5.60
2023-05-24T06:28:26.250Z,4.80
2023-05-24T06:30:54.483Z,5.10
2023-05-24T06:33:23.620Z,5.43
2023-05-24T06:35:51.567Z,4.80
2023-05-24T06:38:21.804Z,4.20
2023-05-24T06:40:49.967Z,5.80
2023-05-24T06:43:18.863Z,5.00
2023-05-24T06:45:47.795Z,5.57
2023-05-24T06:48:16.019Z,4.80
2023-05-24T06:50:45.911Z,5.70
2023-05-24T06:53:13.905Z,5.30
2023-05-24T06:55:43.636Z,4.80
2023-05-24T06:58:14.864Z,5.43
2023-05-24T07:00:43.722Z,4.83
2023-05-24T07:03:12.068Z,5.37
2023-05-24T07:05:40.222Z,5.27
2023-05-24T07:08:08.051Z,5.57
2023-05-24T07:10:35.975Z,4.70
2023-05-24T07:13:05.372Z,5.30
2023-05-24T07:15:33.331Z,4.27
2023-05-24T07:18:01.892Z,4.87
2023-05-24T07:20:29.728Z,3.97
2023-05-24T07:22:57.948Z,4.53
2023-05-24T07:25:25.753Z,4.57
2023-05-24T07:27:53.709Z,4.80
2023-05-24T07:30:31.679Z,4.93
2023-05-24T07:33:00.313Z,4.90
2023-05-24T07:35:28.726Z,4.33
2023-05-24T07:37:56.585Z,4.70
2023-05-24T07:40:24.550Z,4.70
2023-05-24T07:42:52.441Z,4.87
2023-05-24T07:45:20.546Z,4.50
2023-05-24T07:47:49.962Z,4.80
2023-05-24T07:50:18.665Z,4.87
2023-05-24T07:52:46.767Z,4.60
2023-05-24T07:55:14.905Z,4.67
2023-05-24T07:57:42.810Z,4.60
2023-05-24T08:00:15.216Z,5.10
2023-05-24T08:02:44.242Z,4.13
2023-05-24T08:05:14.870Z,4.80
2023-05-24T08:07:44.017Z,4.60
2023-05-24T08:10:13.675Z,4.43
2023-05-24T08:12:41.979Z,4.43
2023-05-24T08:15:11.222Z,5.13
2023-05-24T08:17:39.801Z,4.90
2023-05-24T08:20:10.082Z,4.57
2023-05-24T08:22:39.592Z,4.13
2023-05-24T08:25:08.122Z,4.03
2023-05-24T08:27:36.221Z,3.97
2023-05-24T08:30:04.567Z,4.90
2023-05-24T08:32:32.446Z,4.40
2023-05-24T08:35:07.224Z,4.10
2023-05-24T08:37:40.737Z,4.27
2023-05-24T08:40:10.104Z,4.20
2023-05-24T08:42:39.808Z,4.30
2023-05-24T08:45:10.708Z,4.70
2023-05-24T08:47:40.070Z,5.00
2023-05-24T08:50:09.294Z,4.43
2023-05-24T08:52:37.801Z,4.57
2023-05-24T08:55:08.746Z,3.83
2023-05-24T08:57:39.582Z,5.23
2023-05-24T09:00:10.440Z,4.30
2023-05-24T09:02:40.122Z,4.47
2023-05-24T09:05:11.242Z,3.80
2023-05-24T09:07:40.003Z,4.37
2023-05-24T09:10:11.277Z,4.03
2023-05-24T09:12:40.550Z,4.37
2023-05-24T09:15:09.779Z,4.43
2023-05-24T09:17:40.862Z,4.73
2023-05-24T09:20:11.510Z,4.63
2023-05-24T09:22:42.497Z,4.07
2023-05-24T09:25:16.128Z,5.07
2023-05-24T09:27:50.921Z,4.53
2023-05-24T09:30:19.191Z,4.07
2023-05-24T09:32:58.448Z,3.83
2023-05-24T09:35:28.285Z,4.00
2023-05-24T09:38:00.457Z,3.70
2023-05-24T09:40:30.982Z,4.23
2023-05-24T09:43:05.991Z,4.53
2023-05-24T09:45:36.588Z,3.80
2023-05-24T09:48:05.315Z,3.77
2023-05-24T09:50:33.615Z,4.07
2023-05-24T09:53:01.871Z,4.63
2023-05-24T09:55:31.744Z,5.27
2023-05-24T09:58:05.420Z,3.93
2023-05-24T10:00:36.890Z,4.53
2023-05-24T10:03:07.112Z,4.20
2023-05-24T10:05:36.037Z,4.07
2023-05-24T10:08:06.125Z,3.67
2023-05-24T10:10:35.407Z,3.37
2023-05-24T10:13:04.242Z,2.97
2023-05-24T10:15:32.149Z,4.10
2023-05-24T10:18:00.629Z,4.07
2023-05-24T10:20:29.406Z,3.77
2023-05-24T10:23:02.279Z,3.37
2023-05-24T10:25:31.448Z,3.53
2023-05-24T10:28:04.504Z,4.20
2023-05-24T10:30:37.890Z,3.57
2023-05-24T10:33:09.686Z,3.63
2023-05-24T10:35:38.438Z,3.87
2023-05-24T10:38:07.779Z,3.93
2023-05-24T10:40:36.822Z,4.17
2023-05-24T10:43:07.264Z,3.33
2023-05-24T10:45:37.999Z,3.10
2023-05-24T10:48:33.944Z,3.70
2023-05-24T10:51:02.809Z,3.83
2023-05-24T10:53:30.957Z,3.17
2023-05-24T10:56:00.498Z,3.47
2023-05-24T10:58:46.389Z,3.90
2023-05-24T11:01:15.279Z,3.90
2023-05-24T11:03:43.797Z,3.90
2023-05-24T11:06:11.922Z,3.27
2023-05-24T11:08:43.894Z,3.80
2023-05-24T11:13:48.816Z,3.77
2023-05-24T11:16:34.332Z,3.77
2023-05-24T11:19:13.297Z,4.10
2023-05-24T11:21:42.176Z,3.50
2023-05-24T11:24:11.628Z,3.53
2023-05-24T11:26:40.904Z,4.30
2023-05-24T11:29:10.439Z,3.73
2023-05-24T11:31:43.139Z,3.50
2023-05-24T11:34:12.242Z,3.40
2023-05-24T11:36:41.100Z,4.40
2023-05-24T11:39:09.790Z,4.17
2023-05-24T11:41:40.333Z,4.60
2023-05-24T11:44:11.345Z,4.13
2023-05-24T11:46:45.718Z,3.37
2023-05-24T11:49:16.033Z,3.63
2023-05-24T11:51:44.715Z,4.03
2023-05-24T11:54:12.685Z,3.70
2023-05-24T11:56:40.523Z,3.90
2023-05-24T11:59:16.918Z,3.97
2023-05-24T12:01:45.461Z,4.47
2023-05-24T12:04:13.736Z,4.00
2023-05-24T12:06:43.360Z,3.80
2023-05-24T12:09:14.634Z,3.53
2023-05-24T12:11:44.655Z,3.77
2023-05-24T12:14:15.443Z,4.17
2023-05-24T12:16:47.752Z,4.07
2023-05-24T12:19:31.617Z,3.70
2023-05-24T12:22:01.800Z,4.10
2023-05-24T12:24:32.939Z,4.70
2023-05-24T12:27:02.889Z,3.87
2023-05-24T12:29:36.843Z,3.63
2023-05-24T12:32:05.445Z,3.60
2023-05-24T12:34:34.007Z,3.47
2023-05-24T12:37:02.087Z,3.80
2023-05-24T12:39:34.303Z,4.33
2023-05-24T12:42:03.085Z,4.13
2023-05-24T12:44:32.520Z,3.57
2023-05-24T12:47:03.787Z,3.30
2023-05-24T12:49:35.612Z,3.90
2023-05-24T12:52:03.568Z,4.07
2023-05-24T12:54:31.675Z,3.87
2023-05-24T12:57:08.608Z,4.43
2023-05-24T12:59:50.670Z,4.03
2023-05-24T13:02:20.507Z,4.83
2023-05-24T13:04:48.687Z,3.70
2023-05-24T13:07:19.535Z,4.07
2023-05-24T13:09:52.016Z,4.03
2023-05-24T13:12:21.194Z,4.20
2023-05-24T13:15:04.734Z,4.00
2023-05-24T13:17:34.961Z,3.73
2023-05-24T13:20:07.286Z,3.83
2023-05-24T13:22:37.839Z,4.73
2023-05-24T13:25:07.741Z,4.23
2023-05-24T13:27:36.462Z,3.53
2023-05-24T13:30:04.833Z,4.30
2023-05-24T13:32:34.596Z,3.90
2023-05-24T13:35:03.655Z,3.80
2023-05-24T13:37:33.524Z,3.93
2023-05-24T13:40:01.350Z,3.70
2023-05-24T13:42:29.605Z,4.57
2023-05-24T13:44:59.185Z,3.77
2023-05-24T13:47:35.850Z,4.33
2023-05-24T13:50:12.394Z,4.07
2023-05-24T13:52:40.469Z,4.40
2023-05-24T13:55:08.960Z,3.80
2023-05-24T13:57:50.554Z,4.80
2023-05-24T14:00:20.363Z,4.80
2023-05-24T14:02:48.233Z,3.90
2023-05-24T14:05:27.563Z,4.93
2023-05-24T14:07:56.357Z,4.30
2023-05-24T14:10:24.428Z,3.63
2023-05-24T14:13:07.913Z,3.97
2023-05-24T14:15:40.933Z,4.50
2023-05-24T14:18:09.099Z,4.53
2023-05-24T14:20:40.668Z,3.83
2023-05-24T14:23:10.059Z,3.70
2023-05-24T14:25:38.222Z,3.70
2023-05-24T14:28:08.584Z,4.00
2023-05-24T14:30:38.016Z,3.80
2023-05-24T14:33:08.068Z,3.70
2023-05-24T14:35:40.043Z,3.67
2023-05-24T14:38:11.526Z,3.77
2023-05-24T14:40:40.959Z,4.13
2023-05-24T14:43:10.995Z,3.50
2023-05-24T14:45:41.285Z,3.73
2023-05-24T14:48:11.844Z,3.67
2023-05-24T14:50:41.138Z,4.00
2023-05-24T14:53:12.553Z,4.27
2023-05-24T14:55:43.444Z,4.30
2023-05-24T14:58:13.106Z,4.30
2023-05-24T15:00:42.433Z,3.67
2023-05-24T15:03:13.157Z,4.03
2023-05-24T15:05:41.710Z,3.77
2023-05-24T15:08:12.354Z,3.97
2023-05-24T15:10:40.320Z,3.63
2023-05-24T15:13:08.188Z,3.60
2023-05-24T15:15:36.423Z,3.90
2023-05-24T15:18:04.920Z,3.67
2023-05-24T15:20:35.818Z,4.40
2023-05-24T15:23:04.541Z,4.60
2023-05-24T15:25:33.994Z,4.57
2023-05-24T15:28:02.088Z,3.80
2023-05-24T15:30:30.000Z,3.60
2023-05-24T15:32:57.840Z,4.13
2023-05-24T15:35:26.233Z,4.10
2023-05-24T15:37:54.364Z,4.10
2023-05-24T15:40:24.409Z,4.13
2023-05-24T15:42:54.186Z,4.20
2023-05-24T15:45:22.325Z,4.30
2023-05-24T15:47:50.871Z,4.10
2023-05-24T15:50:25.898Z,3.80
2023-05-24T15:53:00.821Z,4.53
2023-05-24T15:55:28.914Z,3.97
2023-05-24T15:57:59.424Z,3.60
2023-05-24T16:00:27.443Z,4.57
2023-05-24T16:02:57.082Z,3.60
2023-05-24T16:05:25.074Z,4.37
2023-05-24T16:07:52.918Z,4.00
2023-05-24T16:10:20.693Z,4.60
2023-05-24T16:12:48.923Z,3.83
2023-05-24T16:15:19.143Z,4.83
2023-05-24T16:17:47.317Z,4.63
2023-05-24T16:20:15.044Z,4.03
2023-05-24T16:22:49.064Z,3.80
2023-05-24T16:25:17.275Z,4.37
2023-05-24T16:27:45.588Z,3.77
2023-05-24T16:30:14.189Z,3.80
2023-05-24T16:32:45.352Z,4.07
2023-05-24T16:35:13.429Z,3.77
2023-05-24T16:37:42.740Z,3.43
2023-05-24T16:40:11.910Z,3.87
2023-05-24T16:42:39.671Z,3.50
2023-05-24T16:45:08.296Z,4.00
2023-05-24T16:47:36.883Z,3.60
2023-05-24T16:50:14.747Z,4.17
2023-05-24T16:52:42.918Z,4.57
2023-05-24T16:55:11.896Z,3.83
2023-05-24T16:57:40.346Z,3.90
2023-05-24T17:00:10.437Z,4.23
2023-05-24T17:02:38.409Z,3.60
2023-05-24T17:05:08.867Z,3.97
2023-05-24T17:07:37.008Z,4.13
2023-05-24T17:10:05.349Z,4.37
2023-05-24T17:12:33.108Z,3.80
2023-05-24T17:15:00.887Z,4.40
2023-05-24T17:17:28.667Z,3.73
2023-05-24T17:19:56.498Z,4.37
2023-05-24T17:22:26.374Z,4.03
2023-05-24T17:24:55.368Z,4.20
2023-05-24T17:27:23.990Z,4.33
2023-05-24T17:29:52.457Z,3.80
2023-05-24T17:32:20.918Z,4.33
2023-05-24T17:34:48.957Z,4.17
2023-05-24T17:37:16.789Z,4.30
2023-05-24T17:39:46.016Z,4.10
2023-05-24T17:42:13.751Z,4.30
2023-05-24T17:44:42.357Z,3.70
2023-05-24T17:47:10.684Z,3.47
2023-05-24T17:49:38.542Z,4.17
2023-05-24T17:52:06.722Z,3.57
2023-05-24T17:54:35.367Z,4.33
2023-05-24T17:57:05.089Z,4.23
2023-05-24T17:59:49.833Z,4.50
2023-05-24T18:02:17.668Z,4.20
2023-05-24T18:04:46.541Z,3.90
2023-05-24T18:07:15.245Z,3.87
2023-05-24T18:09:42.983Z,3.43
2023-05-24T18:12:12.967Z,3.60
2023-05-24T18:14:41.786Z,4.17
2023-05-24T18:17:10.367Z,3.70
2023-05-24T18:19:38.232Z,3.83
2023-05-24T18:22:06.259Z,3.50
2023-05-24T18:24:34.027Z,4.20
2023-05-24T18:27:02.559Z,4.70
2023-05-24T18:29:32.032Z,4.23
2023-05-24T18:32:00.104Z,4.23
2023-05-24T18:34:27.949Z,4.30
2023-05-24T18:36:55.844Z,3.50
2023-05-24T18:39:23.927Z,3.73
2023-05-24T18:41:54.057Z,4.07
2023-05-24T18:44:21.838Z,4.53
2023-05-24T18:46:55.787Z,3.60
2023-05-24T18:49:24.216Z,3.83
2023-05-24T18:51:51.972Z,3.50
2023-05-24T18:54:20.044Z,3.60
2023-05-24T18:56:48.454Z,3.60
2023-05-24T18:59:16.811Z,3.63
2023-05-24T19:01:44.689Z,4.60
2023-05-24T19:04:14.184Z,3.83
2023-05-24T19:06:42.408Z,3.83
2023-05-24T19:09:10.336Z,3.47
2023-05-24T19:11:38.105Z,4.43
2023-05-24T19:14:05.894Z,3.77
2023-05-24T19:16:34.148Z,3.97
2023-05-24T19:19:01.953Z,3.97
2023-05-24T19:21:32.257Z,4.10
2023-05-24T19:24:00.187Z,3.80
2023-05-24T19:26:28.947Z,3.87
2023-05-24T19:28:56.950Z,4.40
2023-05-24T19:31:26.013Z,3.97
2023-05-24T19:34:00.359Z,3.90
2023-05-24T19:36:32.853Z,3.60
2023-05-24T19:39:01.000Z,4.00
2023-05-24T19:41:28.918Z,3.60
2023-05-24T19:43:58.503Z,3.77
2023-05-24T19:46:26.905Z,3.80
2023-05-24T19:48:55.620Z,3.93
2023-05-24T19:51:23.572Z,3.90
2023-05-24T19:53:52.977Z,3.53
2023-05-24T19:56:21.368Z,4.60
2023-05-24T19:58:50.086Z,4.83
2023-05-24T20:01:17.909Z,4.23
2023-05-24T20:03:50.329Z,4.53
2023-05-24T20:06:19.052Z,4.13
2023-05-24T20:08:47.269Z,4.27
2023-05-24T20:11:16.760Z,3.90
2023-05-24T20:13:49.281Z,4.23
2023-05-24T20:16:17.266Z,3.90
2023-05-24T20:18:45.111Z,3.87
2023-05-24T20:21:13.312Z,4.67
2023-05-24T20:23:41.448Z,3.73
2023-05-24T20:26:09.508Z,4.10
2023-05-24T20:28:38.895Z,4.00
2023-05-24T20:31:07.855Z,3.67
2023-05-24T20:33:38.395Z,4.27
2023-05-24T20:36:08.148Z,4.50
2023-05-24T20:38:37.433Z,4.30
2023-05-24T20:41:05.576Z,4.30
2023-05-24T20:43:33.337Z,4.07
2023-05-24T20:46:02.634Z,4.33
2023-05-24T20:48:30.797Z,5.50
2023-05-24T20:50:59.240Z,4.50
2023-05-24T20:53:27.425Z,5.40
2023-05-24T20:55:56.619Z,5.63
2023-05-24T20:58:24.559Z,4.60
2023-05-24T21:00:52.727Z,4.80
2023-05-24T21:03:22.298Z,4.63
2023-05-24T21:05:50.438Z,4.03
2023-05-24T21:08:18.618Z,4.80
2023-05-24T21:10:46.730Z,5.03
2023-05-24T21:13:14.444Z,4.80
2023-05-24T21:15:45.226Z,5.00
2023-05-24T21:18:13.455Z,5.23
2023-05-24T21:20:42.987Z,4.83
2023-05-24T21:23:10.917Z,4.30
2023-05-24T21:25:38.738Z,4.53
2023-05-24T21:28:06.695Z,4.93
2023-05-24T21:30:34.724Z,4.73
2023-05-24T21:33:02.651Z,5.03
2023-05-24T21:35:32.512Z,3.97
2023-05-24T21:38:01.798Z,4.60
2023-05-24T21:40:29.928Z,4.33
2023-05-24T21:42:57.863Z,4.43
2023-05-24T21:45:25.615Z,4.30
2023-05-24T21:47:53.445Z,6.87
2023-05-24T21:50:21.418Z,5.30
2023-05-24T21:52:49.212Z,5.73
2023-05-24T21:55:18.694Z,5.00
2023-05-24T21:57:46.561Z,4.30
2023-05-24T22:00:17.113Z,4.23
2023-05-24T22:02:45.255Z,4.20
2023-05-24T22:05:13.415Z,4.20
2023-05-24T22:07:41.449Z,3.97
2023-05-24T22:10:11.544Z,4.20
2023-05-24T22:12:40.681Z,4.53
2023-05-24T22:15:09.987Z,4.93
2023-05-24T22:17:41.019Z,4.40
2023-05-24T22:20:10.975Z,4.40
2023-05-24T22:22:40.250Z,4.20
2023-05-24T22:25:09.279Z,4.13
2023-05-24T22:27:37.212Z,4.37
2023-05-24T22:30:09.919Z,3.67
2023-05-24T22:32:37.758Z,4.87
2023-05-24T22:35:06.096Z,4.30
2023-05-24T22:37:34.029Z,3.87
2023-05-24T22:40:02.165Z,4.10
2023-05-24T22:42:30.239Z,4.07
2023-05-24T22:44:58.153Z,4.20
2023-05-24T22:47:29.023Z,4.40
2023-05-24T22:49:57.050Z,4.43
2023-05-24T22:52:26.688Z,4.90
2023-05-24T22:54:54.744Z,4.67
2023-05-24T22:57:23.110Z,5.10
2023-05-24T22:59:51.400Z,4.70
2023-05-24T23:02:19.387Z,3.70
2023-05-24T23:04:48.771Z,5.37
2023-05-24T23:07:16.618Z,5.23
2023-05-24T23:09:45.253Z,5.67
2023-05-24T23:12:14.523Z,5.00
2023-05-24T23:14:46.552Z,4.60
2023-05-24T23:17:14.693Z,4.73
2023-05-24T23:19:43.377Z,5.10
2023-05-24T23:22:13.920Z,5.60
2023-05-24T23:24:42.892Z,5.17
2023-05-24T23:27:11.941Z,5.00
2023-05-24T23:29:40.242Z,5.43
2023-05-24T23:32:09.254Z,5.27
2023-05-24T23:34:37.221Z,5.43
2023-05-24T23:37:06.204Z,5.47
2023-05-24T23:39:36.343Z,6.60
2023-05-24T23:42:04.111Z,6.17
2023-05-24T23:44:32.160Z,5.83
2023-05-24T23:47:00.283Z,5.80
2023-05-24T23:49:28.211Z,5.60
2023-05-24T23:51:56.051Z,5.93
2023-05-24T23:54:24.371Z,6.13
2023-05-24T23:56:54.412Z,7.30
2023-05-24T23:59:22.621Z,6.87
